createdAt,value
2019-05-25T00:00:56.315Z,4.53
2019-05-25T00:03:01.074Z,4.90
2019-05-25T00:05:05.979Z,5.30
2019-05-25T00:07:10.727Z,4.53
2019-05-25T00:09:15.477Z,4.40
2019-05-25T00:11:20.218Z,4.15
2019-05-25T00:13:25.049Z,5.00
2019-05-25T00:15:29.850Z,5.90
2019-05-25T00:17:34.613Z,4.75
2019-05-25T00:19:39.419Z,5.10
2019-05-25T00:21:44.181Z,4.60
2019-05-25T00:23:49.026Z,5.37
2019-05-25T00:25:53.754Z,4.03
2019-05-25T00:27:58.531Z,4.40
2019-05-25T00:30:03.302Z,5.05
2019-05-25T00:32:08.033Z,5.10
2019-05-25T00:34:12.790Z,5.28
2019-05-25T00:36:17.534Z,3.85
2019-05-25T00:38:22.266Z,4.25
2019-05-25T00:40:27.030Z,4.75
2019-05-25T00:42:31.790Z,5.25
2019-05-25T00:44:36.566Z,4.75
2019-05-25T00:46:41.331Z,5.65
2019-05-25T00:48:46.062Z,5.60
2019-05-25T00:50:50.897Z,5.25
2019-05-25T00:52:55.663Z,4.97
2019-05-25T00:55:00.418Z,5.65
2019-05-25T00:57:05.218Z,5.30
2019-05-25T00:59:09.954Z,4.87
2019-05-25T01:01:14.736Z,5.80
2019-05-25T01:03:19.566Z,5.72
2019-05-25T01:05:24.510Z,5.25
2019-05-25T01:07:29.342Z,5.45
2019-05-25T01:09:34.098Z,6.90
2019-05-25T01:11:38.830Z,6.05
2019-05-25T01:13:43.581Z,4.53
2019-05-25T01:15:48.394Z,5.95
2019-05-25T01:17:53.210Z,5.45
2019-05-25T01:19:57.963Z,5.40
2019-05-25T01:22:02.691Z,5.67
2019-05-25T01:24:07.462Z,5.50
2019-05-25T01:26:12.205Z,5.62
2019-05-25T01:28:16.934Z,5.03
2019-05-25T01:30:21.790Z,5.78
2019-05-25T01:32:26.527Z,5.53
2019-05-25T01:34:31.307Z,5.90
2019-05-25T01:36:36.058Z,5.92
2019-05-25T01:38:40.805Z,6.00
2019-05-25T01:40:45.563Z,5.65
2019-05-25T01:42:50.406Z,5.53
2019-05-25T01:44:55.171Z,5.58
2019-05-25T01:46:59.986Z,5.55
2019-05-25T01:49:04.737Z,5.83
2019-05-25T01:51:09.566Z,5.62
2019-05-25T01:53:14.387Z,5.28
2019-05-25T01:55:19.147Z,5.72
2019-05-25T01:57:23.918Z,5.25
2019-05-25T01:59:28.656Z,5.65
2019-05-25T02:01:33.403Z,5.75
2019-05-25T02:03:38.189Z,4.92
2019-05-25T02:05:42.926Z,6.20
2019-05-25T02:07:47.802Z,5.40
2019-05-25T02:09:52.553Z,5.30
2019-05-25T02:11:57.388Z,5.12
2019-05-25T02:14:02.198Z,5.50
2019-05-25T02:16:06.938Z,4.60
2019-05-25T02:18:11.715Z,4.58
2019-05-25T02:20:16.631Z,4.05
2019-05-25T02:22:21.375Z,4.78
2019-05-25T02:24:26.171Z,4.95
2019-05-25T02:26:30.919Z,5.20
2019-05-25T02:28:35.667Z,4.62
2019-05-25T02:30:40.419Z,4.65
2019-05-25T02:32:45.229Z,4.90
2019-05-25T02:34:49.969Z,5.10
2019-05-25T02:36:54.753Z,4.90
2019-05-25T02:38:59.494Z,4.60
2019-05-25T02:41:04.274Z,5.10
2019-05-25T02:43:09.019Z,4.85
2019-05-25T02:45:13.758Z,5.03
2019-05-25T02:47:18.627Z,5.58
2019-05-25T02:49:23.418Z,5.25
2019-05-25T02:51:28.169Z,5.00
2019-05-25T02:53:32.906Z,4.78
2019-05-25T02:55:37.650Z,5.22
2019-05-25T02:57:42.400Z,5.22
2019-05-25T02:59:47.162Z,5.15
2019-05-25T03:01:51.907Z,5.40
2019-05-25T03:03:56.889Z,4.72
2019-05-25T03:06:01.688Z,4.75
2019-05-25T03:08:06.615Z,4.50
2019-05-25T03:10:11.470Z,5.05
2019-05-25T03:12:16.322Z,5.90
2019-05-25T03:14:21.115Z,4.83
2019-05-25T03:16:25.851Z,4.65
2019-05-25T03:18:30.667Z,5.00
2019-05-25T03:20:35.446Z,4.97
2019-05-25T03:22:40.180Z,4.35
2019-05-25T03:24:44.938Z,4.75
2019-05-25T03:26:49.676Z,4.85
2019-05-25T03:28:54.488Z,4.50
2019-05-25T03:30:59.312Z,4.25
2019-05-25T03:33:04.067Z,4.83
2019-05-25T03:35:08.998Z,4.90
2019-05-25T03:37:13.814Z,4.75
2019-05-25T03:39:18.562Z,5.58
2019-05-25T03:41:23.349Z,4.87
2019-05-25T03:43:28.082Z,5.03
2019-05-25T03:45:33.049Z,5.65
2019-05-25T03:47:37.806Z,4.15
2019-05-25T03:49:42.615Z,4.65
2019-05-25T03:51:47.345Z,4.35
2019-05-25T03:53:52.116Z,4.58
2019-05-25T03:56:05.355Z,4.30
2019-05-25T03:58:03.318Z,5.17
2019-05-25T04:00:08.098Z,4.40
2019-05-25T04:02:12.826Z,4.15
2019-05-25T04:04:17.570Z,4.87
2019-05-25T04:06:22.315Z,4.75
2019-05-25T04:08:27.054Z,4.15
2019-05-25T04:10:31.828Z,5.20
2019-05-25T04:12:36.555Z,3.58
2019-05-25T04:14:41.302Z,5.08
2019-05-25T04:16:46.058Z,4.17
2019-05-25T04:18:50.835Z,4.85
2019-05-25T04:20:55.624Z,4.33
2019-05-25T04:23:00.463Z,3.87
2019-05-25T04:25:05.236Z,5.25
2019-05-25T04:27:09.978Z,4.65
2019-05-25T04:29:14.735Z,4.70
2019-05-25T04:31:19.570Z,4.35
2019-05-25T04:33:24.327Z,4.37
2019-05-25T04:35:29.083Z,4.35
2019-05-25T04:37:33.904Z,4.60
2019-05-25T04:39:38.734Z,4.60
2019-05-25T04:41:43.497Z,3.80
2019-05-25T04:43:48.254Z,3.65
2019-05-25T04:45:52.990Z,3.80
2019-05-25T04:47:57.767Z,4.42
2019-05-25T04:50:02.512Z,3.62
2019-05-25T04:52:07.259Z,4.12
2019-05-25T04:54:12.030Z,3.50
2019-05-25T04:56:16.766Z,3.77
2019-05-25T04:58:21.951Z,3.65
2019-05-25T05:00:26.885Z,4.25
2019-05-25T05:02:31.706Z,4.37
2019-05-25T05:04:36.495Z,4.40
2019-05-25T05:06:41.270Z,4.25
2019-05-25T05:08:46.072Z,3.65
2019-05-25T05:10:50.852Z,3.58
2019-05-25T05:12:55.595Z,4.70
2019-05-25T05:15:00.422Z,4.47
2019-05-25T05:17:05.171Z,4.70
2019-05-25T05:19:09.968Z,3.83
2019-05-25T05:21:14.734Z,4.60
2019-05-25T05:23:19.487Z,4.05
2019-05-25T05:25:24.314Z,3.85
2019-05-25T05:27:29.075Z,3.67
2019-05-25T05:29:33.823Z,4.58
2019-05-25T05:31:38.586Z,3.80
2019-05-25T05:33:43.355Z,4.42
2019-05-25T05:35:48.959Z,3.87
2019-05-25T05:37:53.730Z,4.05
2019-05-25T05:39:59.068Z,3.10
2019-05-25T05:42:04.316Z,3.85
2019-05-25T05:44:09.233Z,3.98
2019-05-25T05:46:14.478Z,3.20
2019-05-25T05:48:20.699Z,3.08
2019-05-25T05:50:25.465Z,4.72
2019-05-25T05:52:31.699Z,3.60
2019-05-25T05:54:38.027Z,3.05
2019-05-25T05:56:42.775Z,3.67
2019-05-25T05:58:47.526Z,3.45
2019-05-25T06:00:52.015Z,3.20
2019-05-25T06:02:56.661Z,3.63
2019-05-25T06:05:01.143Z,3.30
2019-05-25T06:07:05.688Z,3.43
2019-05-25T06:09:10.184Z,3.27
2019-05-25T06:11:14.674Z,3.00
2019-05-25T06:13:19.167Z,2.93
2019-05-25T06:15:23.662Z,3.57
2019-05-25T06:17:28.212Z,2.60
2019-05-25T06:19:32.766Z,2.90
2019-05-25T06:21:37.282Z,2.80
2019-05-25T06:23:41.750Z,2.60
2019-05-25T06:25:46.234Z,2.80
2019-05-25T06:27:50.778Z,2.93
2019-05-25T06:29:55.279Z,2.87
2019-05-25T06:31:59.818Z,2.60
2019-05-25T06:34:04.386Z,2.13
2019-05-25T06:36:08.898Z,2.60
2019-05-25T06:38:13.362Z,3.50
2019-05-25T06:40:17.830Z,2.93
2019-05-25T06:42:22.334Z,2.73
2019-05-25T06:44:26.798Z,2.37
2019-05-25T06:46:31.295Z,2.57
2019-05-25T06:48:35.834Z,2.53
2019-05-25T06:50:40.311Z,2.70
2019-05-25T06:52:44.795Z,2.27
2019-05-25T06:54:49.325Z,2.30
2019-05-25T06:56:53.878Z,2.37
2019-05-25T06:58:58.406Z,3.23
2019-05-25T07:01:04.596Z,2.33
2019-05-25T07:03:09.162Z,2.60
2019-05-25T07:05:13.727Z,2.60
2019-05-25T07:07:18.233Z,2.33
2019-05-25T07:09:22.717Z,2.60
2019-05-25T07:11:27.126Z,2.33
2019-05-25T07:13:31.654Z,2.10
2019-05-25T07:15:36.162Z,2.27
2019-05-25T07:17:40.646Z,2.77
2019-05-25T07:19:45.135Z,2.10
2019-05-25T07:21:49.614Z,2.03
2019-05-25T07:23:54.095Z,3.60
2019-05-25T07:25:58.581Z,2.17
2019-05-25T07:28:03.119Z,2.50
2019-05-25T07:30:07.591Z,2.13
2019-05-25T07:32:12.065Z,2.80
2019-05-25T07:34:16.654Z,2.93
2019-05-25T07:36:21.214Z,2.40
2019-05-25T07:38:25.694Z,2.40
2019-05-25T07:40:30.183Z,2.60
2019-05-25T07:42:34.744Z,3.40
2019-05-25T07:44:39.310Z,2.50
2019-05-25T07:46:43.951Z,2.63
2019-05-25T07:48:50.453Z,3.17
2019-05-25T07:50:54.764Z,2.90
2019-05-25T07:52:59.290Z,2.90
2019-05-25T07:55:03.976Z,2.30
2019-05-25T07:57:08.435Z,2.20
2019-05-25T07:59:13.134Z,3.20
2019-05-25T08:01:17.644Z,3.40
2019-05-25T08:03:22.203Z,2.97
2019-05-25T08:05:26.822Z,2.60
2019-05-25T08:07:31.326Z,2.60
2019-05-25T08:09:35.843Z,3.00
2019-05-25T08:11:40.418Z,2.57
2019-05-25T08:13:45.206Z,2.83
2019-05-25T08:15:49.686Z,2.70
2019-05-25T08:17:54.150Z,2.37
2019-05-25T08:19:58.662Z,2.57
2019-05-25T08:22:03.170Z,3.00
2019-05-25T08:24:13.193Z,2.33
2019-05-25T08:26:18.650Z,2.63
2019-05-25T08:28:32.248Z,2.70
2019-05-25T08:30:29.434Z,2.20
2019-05-25T08:32:33.904Z,2.27
2019-05-25T08:34:38.545Z,2.53
2019-05-25T08:36:43.126Z,2.20
2019-05-25T08:38:47.691Z,2.40
2019-05-25T08:40:52.179Z,2.10
2019-05-25T08:42:56.891Z,2.47
2019-05-25T08:45:01.461Z,2.63
2019-05-25T08:47:05.926Z,2.40
2019-05-25T08:49:10.402Z,2.70
2019-05-25T08:51:15.056Z,2.73
2019-05-25T08:53:23.230Z,2.80
2019-05-25T08:55:25.759Z,1.93
2019-05-25T08:57:30.245Z,2.20
2019-05-25T08:59:34.779Z,2.43
2019-05-25T09:01:39.275Z,2.50
2019-05-25T09:03:43.748Z,3.33
2019-05-25T09:05:48.345Z,2.97
2019-05-25T09:07:52.838Z,2.97
2019-05-25T09:09:57.358Z,2.90
2019-05-25T09:12:02.434Z,3.50
2019-05-25T09:14:06.990Z,3.10
2019-05-25T09:16:11.499Z,3.27
2019-05-25T09:18:15.978Z,2.70
2019-05-25T09:20:20.526Z,3.23
2019-05-25T09:22:25.026Z,3.27
2019-05-25T09:24:29.515Z,3.27
2019-05-25T09:26:34.243Z,3.40
2019-05-25T09:28:38.843Z,3.00
2019-05-25T09:30:43.320Z,3.00
2019-05-25T09:32:47.814Z,2.73
2019-05-25T09:34:52.282Z,2.73
2019-05-25T09:36:57.009Z,2.70
2019-05-25T09:39:01.485Z,2.63
2019-05-25T09:41:06.060Z,3.43
2019-05-25T09:43:10.735Z,2.73
2019-05-25T09:45:15.199Z,2.87
2019-05-25T09:47:19.755Z,2.60
2019-05-25T09:49:23.534Z,2.50
2019-05-25T09:51:28.014Z,2.90
2019-05-25T09:53:34.043Z,2.90
2019-05-25T09:55:38.590Z,2.77
2019-05-25T09:57:43.063Z,2.80
2019-05-25T09:59:47.631Z,2.57
2019-05-25T10:01:52.114Z,3.50
2019-05-25T10:03:56.874Z,3.17
2019-05-25T10:06:10.819Z,3.10
2019-05-25T10:08:07.634Z,3.27
2019-05-25T10:10:12.418Z,3.67
2019-05-25T10:12:16.930Z,3.23
2019-05-25T10:14:21.434Z,2.50
2019-05-25T10:16:25.898Z,2.70
2019-05-25T10:18:30.388Z,2.77
2019-05-25T10:20:35.020Z,2.90
2019-05-25T10:22:39.494Z,2.27
2019-05-25T10:24:43.983Z,2.60
2019-05-25T10:26:48.642Z,2.60
2019-05-25T10:28:53.196Z,3.00
2019-05-25T10:30:57.675Z,2.27
2019-05-25T10:33:02.158Z,3.10
2019-05-25T10:35:06.758Z,2.87
2019-05-25T10:37:11.223Z,2.63
2019-05-25T10:39:15.728Z,2.77
2019-05-25T10:41:20.374Z,2.50
2019-05-25T10:43:24.821Z,2.20
2019-05-25T10:45:29.372Z,1.97
2019-05-25T10:47:33.968Z,1.90
2019-05-25T10:49:38.750Z,2.57
2019-05-25T10:51:43.249Z,2.40
2019-05-25T10:53:47.885Z,2.40
2019-05-25T10:55:52.458Z,2.13
2019-05-25T10:57:56.954Z,2.13
2019-05-25T11:00:01.439Z,2.30
2019-05-25T11:02:06.008Z,1.97
2019-05-25T11:04:10.518Z,2.20
2019-05-25T11:06:15.012Z,2.40
2019-05-25T11:08:19.482Z,2.60
2019-05-25T11:10:23.965Z,2.90
2019-05-25T11:12:28.530Z,2.20
2019-05-25T11:14:32.999Z,2.73
2019-05-25T11:16:37.558Z,2.60
2019-05-25T11:18:42.025Z,2.30
2019-05-25T11:20:46.482Z,2.47
2019-05-25T11:22:50.974Z,2.60
2019-05-25T11:24:55.511Z,2.87
2019-05-25T11:27:00.056Z,2.50
2019-05-25T11:29:04.558Z,2.80
2019-05-25T11:31:09.037Z,2.80
2019-05-25T11:33:13.813Z,2.70
2019-05-25T11:35:18.537Z,2.53
2019-05-25T11:37:23.094Z,2.30
2019-05-25T11:39:27.878Z,3.00
2019-05-25T11:41:32.354Z,2.57
2019-05-25T11:43:36.915Z,2.53
2019-05-25T11:45:42.335Z,2.80
2019-05-25T11:47:47.575Z,2.37
2019-05-25T11:49:52.117Z,2.70
2019-05-25T11:51:56.612Z,2.37
2019-05-25T11:54:01.269Z,3.00
2019-05-25T11:56:05.905Z,2.70
2019-05-25T11:58:10.447Z,3.53
2019-05-25T12:00:24.963Z,2.70
2019-05-25T12:02:22.214Z,2.63
2019-05-25T12:04:26.843Z,2.40
2019-05-25T12:06:31.817Z,2.10
2019-05-25T12:08:36.482Z,2.03
2019-05-25T12:10:41.197Z,2.50
2019-05-25T12:12:45.772Z,1.90
2019-05-25T12:14:50.231Z,2.73
2019-05-25T12:16:54.712Z,2.30
2019-05-25T12:18:59.255Z,2.97
2019-05-25T12:21:03.827Z,2.63
2019-05-25T12:23:08.631Z,2.67
2019-05-25T12:25:13.475Z,2.83
2019-05-25T12:27:17.953Z,3.03
2019-05-25T12:29:22.435Z,2.70
2019-05-25T12:31:26.912Z,2.60
2019-05-25T12:33:31.726Z,3.00
2019-05-25T12:35:36.190Z,2.60
2019-05-25T12:37:40.650Z,3.00
2019-05-25T12:39:45.529Z,2.50
2019-05-25T12:41:50.077Z,2.80
2019-05-25T12:43:54.843Z,2.30
2019-05-25T12:45:59.466Z,2.80
2019-05-25T12:48:04.069Z,2.30
2019-05-25T12:50:09.209Z,3.07
2019-05-25T12:52:14.621Z,2.67
2019-05-25T12:54:19.405Z,2.20
2019-05-25T12:56:23.956Z,2.20
2019-05-25T12:58:30.162Z,2.43
2019-05-25T13:00:34.871Z,1.90
2019-05-25T13:02:39.477Z,2.73
2019-05-25T13:04:44.166Z,4.67
2019-05-25T13:06:48.810Z,2.67
2019-05-25T13:08:53.299Z,2.50
2019-05-25T13:10:57.786Z,2.60
2019-05-25T13:13:02.788Z,2.90
2019-05-25T13:15:07.765Z,2.30
2019-05-25T13:17:12.310Z,2.50
2019-05-25T13:19:16.823Z,2.30
2019-05-25T13:21:21.286Z,2.50
2019-05-25T13:23:25.747Z,2.13
2019-05-25T13:25:30.227Z,2.63
2019-05-25T13:27:34.694Z,1.97
2019-05-25T13:29:39.326Z,2.40
2019-05-25T13:31:43.870Z,2.83
2019-05-25T13:33:48.342Z,2.70
2019-05-25T13:35:52.830Z,2.60
2019-05-25T13:37:57.282Z,3.07
2019-05-25T13:40:01.778Z,2.30
2019-05-25T13:42:06.262Z,2.50
2019-05-25T13:44:10.738Z,3.17
2019-05-25T13:46:15.246Z,2.80
2019-05-25T13:48:19.730Z,2.80
2019-05-25T13:50:24.195Z,2.27
2019-05-25T13:52:28.693Z,2.10
2019-05-25T13:54:33.154Z,2.30
2019-05-25T13:56:37.614Z,2.80
2019-05-25T13:58:42.185Z,2.50
2019-05-25T14:00:46.668Z,2.60
2019-05-25T14:02:51.171Z,2.43
2019-05-25T14:04:55.690Z,2.40
2019-05-25T14:07:00.164Z,2.63
2019-05-25T14:09:05.238Z,2.20
2019-05-25T14:11:09.698Z,2.70
2019-05-25T14:13:14.190Z,2.57
2019-05-25T14:15:18.688Z,3.00
2019-05-25T14:17:23.155Z,2.77
2019-05-25T14:19:27.642Z,3.20
2019-05-25T14:21:32.182Z,2.97
2019-05-25T14:23:36.647Z,3.10
2019-05-25T14:25:41.474Z,2.60
2019-05-25T14:27:46.085Z,2.40
2019-05-25T14:29:50.623Z,3.10
2019-05-25T14:31:55.192Z,2.80
2019-05-25T14:33:59.780Z,2.80
2019-05-25T14:36:04.330Z,3.20
2019-05-25T14:38:08.786Z,2.97
2019-05-25T14:40:13.524Z,3.03
2019-05-25T14:42:18.014Z,3.00
2019-05-25T14:44:22.474Z,2.73
2019-05-25T14:46:28.367Z,2.80
2019-05-25T14:48:33.007Z,3.00
2019-05-25T14:50:37.470Z,3.00
2019-05-25T14:52:43.358Z,3.23
2019-05-25T14:54:48.198Z,3.43
2019-05-25T14:56:52.658Z,2.83
2019-05-25T14:58:57.153Z,3.10
2019-05-25T15:01:01.679Z,3.50
2019-05-25T15:03:06.143Z,3.70
2019-05-25T15:05:10.738Z,3.40
2019-05-25T15:07:15.241Z,2.40
2019-05-25T15:09:19.786Z,2.20
2019-05-25T15:11:24.279Z,2.20
2019-05-25T15:13:28.748Z,2.37
2019-05-25T15:15:33.309Z,2.40
2019-05-25T15:17:37.856Z,2.10
2019-05-25T15:19:42.426Z,1.80
2019-05-25T15:21:47.237Z,2.13
2019-05-25T15:23:51.795Z,1.80
2019-05-25T15:25:56.292Z,2.63
2019-05-25T15:28:00.830Z,2.00
2019-05-25T15:30:05.574Z,2.20
2019-05-25T15:32:19.690Z,1.70
2019-05-25T15:34:16.258Z,2.80
2019-05-25T15:36:20.758Z,2.30
2019-05-25T15:38:25.226Z,2.20
2019-05-25T15:40:29.706Z,2.90
2019-05-25T15:42:34.210Z,2.77
2019-05-25T15:44:38.695Z,2.70
2019-05-25T15:46:43.223Z,2.83
2019-05-25T15:48:47.770Z,2.70
2019-05-25T15:50:52.239Z,2.50
2019-05-25T15:52:57.017Z,3.23
2019-05-25T15:55:01.482Z,2.90
2019-05-25T15:57:05.989Z,2.43
2019-05-25T15:59:10.506Z,2.50
2019-05-25T16:01:14.990Z,2.90
2019-05-25T16:03:20.357Z,2.60
2019-05-25T16:05:24.842Z,2.83
2019-05-25T16:07:30.962Z,3.17
2019-05-25T16:09:35.510Z,3.03
2019-05-25T16:11:39.975Z,3.00
2019-05-25T16:13:44.445Z,3.40
2019-05-25T16:15:48.933Z,3.93
2019-05-25T16:17:53.782Z,4.00
2019-05-25T16:19:58.258Z,4.80
2019-05-25T16:22:02.849Z,3.20
2019-05-25T16:24:08.191Z,3.50
2019-05-25T16:26:12.914Z,3.57
2019-05-25T16:28:17.387Z,7.27
2019-05-25T16:30:21.854Z,3.00
2019-05-25T16:32:26.451Z,3.03
2019-05-25T16:34:31.167Z,3.07
2019-05-25T16:36:35.698Z,3.30
2019-05-25T16:38:40.241Z,2.90
2019-05-25T16:40:44.711Z,2.50
2019-05-25T16:42:49.213Z,2.73
2019-05-25T16:44:53.678Z,2.90
2019-05-25T16:46:58.167Z,2.70
2019-05-25T16:49:02.800Z,3.00
2019-05-25T16:51:07.330Z,3.67
2019-05-25T16:53:11.826Z,3.20
2019-05-25T16:55:16.505Z,3.70
2019-05-25T16:57:21.031Z,3.10
2019-05-25T16:59:25.584Z,2.43
2019-05-25T17:01:46.885Z,2.80
2019-05-25T17:03:36.240Z,3.23
2019-05-25T17:05:40.778Z,2.70
2019-05-25T17:07:45.311Z,2.57
2019-05-25T17:09:49.780Z,3.00
2019-05-25T17:11:54.274Z,2.67
2019-05-25T17:13:58.767Z,3.00
2019-05-25T17:16:03.241Z,3.40
2019-05-25T17:18:07.809Z,3.77
2019-05-25T17:20:12.289Z,3.23
2019-05-25T17:22:16.867Z,2.80
2019-05-25T17:24:21.335Z,2.70
2019-05-25T17:26:25.794Z,2.80
2019-05-25T17:28:30.305Z,2.23
2019-05-25T17:30:39.089Z,3.60
2019-05-25T17:32:43.690Z,2.80
2019-05-25T17:34:48.191Z,3.00
2019-05-25T17:36:52.726Z,3.07
2019-05-25T17:38:57.238Z,3.33
2019-05-25T17:41:01.721Z,3.20
2019-05-25T17:43:06.195Z,3.00
2019-05-25T17:45:10.774Z,2.63
2019-05-25T17:47:15.257Z,2.77
2019-05-25T17:49:19.815Z,3.13
2019-05-25T17:51:24.307Z,2.60
2019-05-25T17:53:28.794Z,3.40
2019-05-25T17:55:33.477Z,3.00
2019-05-25T17:57:37.966Z,2.73
2019-05-25T17:59:42.434Z,3.40
2019-05-25T18:01:48.466Z,2.87
2019-05-25T18:04:05.496Z,3.40
2019-05-25T18:05:59.128Z,3.43
2019-05-25T18:08:03.991Z,2.90
2019-05-25T18:10:08.791Z,3.13
2019-05-25T18:12:13.338Z,3.70
2019-05-25T18:14:17.809Z,3.57
2019-05-25T18:16:22.279Z,3.80
2019-05-25T18:18:33.213Z,4.00
2019-05-25T18:20:37.778Z,4.17
2019-05-25T18:22:42.611Z,4.10
2019-05-25T18:24:47.084Z,3.90
2019-05-25T18:26:51.642Z,3.70
2019-05-25T18:28:56.390Z,4.37
2019-05-25T18:31:01.152Z,3.10
2019-05-25T18:33:05.849Z,4.23
2019-05-25T18:35:10.723Z,3.95
2019-05-25T18:37:15.470Z,3.80
2019-05-25T18:39:20.259Z,4.17
2019-05-25T18:41:25.014Z,3.85
2019-05-25T18:43:29.866Z,4.05
2019-05-25T18:45:34.722Z,3.20
2019-05-25T18:47:39.465Z,4.55
2019-05-25T18:49:44.343Z,4.00
2019-05-25T18:51:49.078Z,4.47
2019-05-25T18:53:53.864Z,4.15
2019-05-25T18:55:59.033Z,4.40
2019-05-25T18:58:03.526Z,4.00
2019-05-25T19:00:09.031Z,4.37
2019-05-25T19:02:14.262Z,4.62
2019-05-25T19:04:19.079Z,4.37
2019-05-25T19:06:23.810Z,4.50
2019-05-25T19:08:28.600Z,4.45
2019-05-25T19:10:33.595Z,6.60
2019-05-25T19:12:38.562Z,8.25
2019-05-25T19:14:43.921Z,6.33
2019-05-25T19:16:52.168Z,6.78
2019-05-25T19:18:56.930Z,6.30
2019-05-25T19:21:01.763Z,6.85
2019-05-25T19:23:07.284Z,4.87
2019-05-25T19:25:15.238Z,5.20
2019-05-25T19:27:20.119Z,5.00
2019-05-25T19:29:24.966Z,4.50
2019-05-25T19:31:29.786Z,4.92
2019-05-25T19:33:34.613Z,4.92
2019-05-25T19:35:39.685Z,5.40
2019-05-25T19:37:45.054Z,4.92
2019-05-25T19:39:49.929Z,5.10
2019-05-25T19:41:54.912Z,4.97
2019-05-25T19:43:59.866Z,4.87
2019-05-25T19:46:04.626Z,4.75
2019-05-25T19:48:10.580Z,4.90
2019-05-25T19:50:16.294Z,7.50
2019-05-25T19:52:22.928Z,7.60
2019-05-25T19:54:28.406Z,6.05
2019-05-25T19:56:33.267Z,5.50
2019-05-25T19:58:38.203Z,4.47
2019-05-25T20:00:43.197Z,4.50
2019-05-25T20:02:50.044Z,5.87
2019-05-25T20:04:55.459Z,5.20
2019-05-25T20:07:01.939Z,5.67
2019-05-25T20:09:06.887Z,5.17
2019-05-25T20:11:15.063Z,5.05
2019-05-25T20:13:19.874Z,5.25
2019-05-25T20:15:26.399Z,4.83
2019-05-25T20:17:31.153Z,5.30
2019-05-25T20:19:35.928Z,5.25
2019-05-25T20:21:41.127Z,4.83
2019-05-25T20:23:48.357Z,5.05
2019-05-25T20:25:56.483Z,5.62
2019-05-25T20:28:01.500Z,8.75
2019-05-25T20:30:06.354Z,6.85
2019-05-25T20:32:11.127Z,5.62
2019-05-25T20:34:16.026Z,6.25
2019-05-25T20:36:20.823Z,6.15
2019-05-25T20:38:25.758Z,5.40
2019-05-25T20:40:30.614Z,6.20
2019-05-25T20:42:35.435Z,6.20
2019-05-25T20:44:40.186Z,5.33
2019-05-25T20:46:46.443Z,6.12
2019-05-25T20:48:51.553Z,6.85
2019-05-25T20:50:56.334Z,6.28
2019-05-25T20:53:01.230Z,5.35
2019-05-25T20:55:06.403Z,5.40
2019-05-25T20:57:11.527Z,4.90
2019-05-25T20:59:16.275Z,6.00
2019-05-25T21:01:21.088Z,5.85
2019-05-25T21:03:29.812Z,4.92
2019-05-25T21:05:49.029Z,5.65
2019-05-25T21:07:41.931Z,5.65
2019-05-25T21:09:46.718Z,5.17
2019-05-25T21:11:55.756Z,5.75
2019-05-25T21:13:58.820Z,5.25
2019-05-25T21:16:03.841Z,3.90
2019-05-25T21:18:08.933Z,4.55
2019-05-25T21:20:14.334Z,4.97
2019-05-25T21:22:19.175Z,5.22
2019-05-25T21:24:24.937Z,5.42
2019-05-25T21:26:29.810Z,4.97
2019-05-25T21:28:34.562Z,5.60
2019-05-25T21:30:39.457Z,4.58
2019-05-25T21:32:44.326Z,5.15
2019-05-25T21:34:49.419Z,4.15
2019-05-25T21:36:54.442Z,4.83
2019-05-25T21:38:59.522Z,4.53
2019-05-25T21:41:04.335Z,5.10
2019-05-25T21:43:09.525Z,4.12
2019-05-25T21:45:14.690Z,3.72
2019-05-25T21:47:19.755Z,4.40
2019-05-25T21:49:24.516Z,3.52
2019-05-25T21:51:29.847Z,3.60
2019-05-25T21:53:34.971Z,3.50
2019-05-25T21:55:39.722Z,4.08
2019-05-25T21:57:44.475Z,4.70
2019-05-25T21:59:49.287Z,4.28
2019-05-25T22:01:54.026Z,3.72
2019-05-25T22:03:59.033Z,4.62
2019-05-25T22:06:04.277Z,4.08
2019-05-25T22:08:09.708Z,3.95
2019-05-25T22:10:14.584Z,3.37
2019-05-25T22:12:19.402Z,3.50
2019-05-25T22:14:24.147Z,3.77
2019-05-25T22:16:28.898Z,4.45
2019-05-25T22:18:33.795Z,3.92
2019-05-25T22:20:38.752Z,3.80
2019-05-25T22:22:43.514Z,3.80
2019-05-25T22:24:48.527Z,3.65
2019-05-25T22:26:59.310Z,4.05
2019-05-25T22:29:04.461Z,4.00
2019-05-25T22:31:10.045Z,3.65
2019-05-25T22:33:14.878Z,3.80
2019-05-25T22:35:20.214Z,4.42
2019-05-25T22:37:25.089Z,5.45
2019-05-25T22:39:30.704Z,4.25
2019-05-25T22:41:35.618Z,4.30
2019-05-25T22:43:40.382Z,4.28
2019-05-25T22:45:46.922Z,4.58
2019-05-25T22:47:52.018Z,4.00
2019-05-25T22:49:57.082Z,4.67
2019-05-25T22:52:01.871Z,4.87
2019-05-25T22:54:07.063Z,4.87
2019-05-25T22:56:11.870Z,3.90
2019-05-25T22:58:17.336Z,4.28
2019-05-25T23:00:22.170Z,3.55
2019-05-25T23:02:27.630Z,3.45
2019-05-25T23:04:32.525Z,4.70
2019-05-25T23:06:38.307Z,4.60
2019-05-25T23:08:43.147Z,4.80
2019-05-25T23:10:48.227Z,3.92
2019-05-25T23:12:54.696Z,3.70
2019-05-25T23:14:59.838Z,3.95
2019-05-25T23:17:04.878Z,4.53
2019-05-25T23:19:09.649Z,3.90
2019-05-25T23:21:15.414Z,3.75
2019-05-25T23:23:20.174Z,4.22
2019-05-25T23:25:26.819Z,3.60
2019-05-25T23:27:31.599Z,4.00
2019-05-25T23:29:36.433Z,4.65
2019-05-25T23:31:41.318Z,3.42
2019-05-25T23:33:46.379Z,4.70
2019-05-25T23:35:51.150Z,3.98
2019-05-25T23:37:56.263Z,4.65
2019-05-25T23:40:01.339Z,4.03
2019-05-25T23:42:06.178Z,4.85
2019-05-25T23:44:10.943Z,4.55
2019-05-25T23:46:15.686Z,4.10
2019-05-25T23:48:20.453Z,4.12
2019-05-25T23:50:26.252Z,5.12
2019-05-25T23:52:34.082Z,5.05
2019-05-25T23:54:38.955Z,4.95
2019-05-25T23:56:45.005Z,4.65
2019-05-25T23:58:49.885Z,4.87
